Time;durP1;ratioP1;P1;durP2;ratioP2;P2;SDS_P1;SDS_P2;PMS_P1;PMS_P2;Temp;Humidity;BMP_temperature;BMP_pressure;BME280_temperature;BME280_humidity;BME280_pressure;Samples;Min_cycle;Max_cycle;Signal;HPM_P1;HPM_P2
2022/04/06 00:00:44;;;;;;;28.27;6.55;;;;;;;;;;4964652;28;20034;-80
2022/04/06 00:03:10;;;;;;;36.25;7.93;;;;;;;;;;4983138;28;20034;-80
2022/04/06 00:05:36;;;;;;;23.83;4.97;;;;;;;;;;4983253;28;20042;-80
2022/04/06 00:08:02;;;;;;;19.77;4.90;;;;;;;;;;4982462;28;20328;-80
2022/04/06 00:10:31;;;;;;;25.05;7.20;;;;;;;;;;4960652;28;20038;-80
2022/04/06 00:12:57;;;;;;;34.40;7.82;;;;;;;;;;4965901;28;20031;-80
2022/04/06 00:15:24;;;;;;;29.83;8.13;;;;;;;;;;4976408;28;20037;-80
2022/04/06 00:17:50;;;;;;;31.05;8.10;;;;;;;;;;4976157;28;20073;-80
2022/04/06 00:20:23;;;;;;;39.20;9.15;;;;;;;;;;4962171;28;20052;-80
2022/04/06 00:22:49;;;;;;;13.50;4.35;;;;;;;;;;4980542;28;20161;-80
2022/04/06 00:25:15;;;;;;;31.65;9.88;;;;;;;;;;4963183;28;20428;-80
2022/04/06 00:27:41;;;;;;;22.42;7.53;;;;;;;;;;4982396;28;20034;-80
2022/04/06 00:30:08;;;;;;;46.22;10.00;;;;;;;;;;4977916;28;20053;-80
2022/04/06 00:32:34;;;;;;;28.13;8.57;;;;;;;;;;4977052;28;20027;-80
2022/04/06 00:38:05;;;;;;;29.10;7.75;;;;;;;;;;4899940;29;20161;-80
2022/04/06 00:40:35;;;;;;;41.05;10.63;;;;;;;;;;4903331;29;20042;-79
2022/04/06 00:43:11;;;;;;;39.08;8.82;;;;;;;;;;4936652;28;20065;-80
2022/04/06 00:45:38;;;;;;;50.90;11.18;;;;;;;;;;4978141;28;20522;-80
2022/04/06 00:48:04;;;;;;;45.33;11.85;;;;;;;;;;4961162;28;20027;-80
2022/04/06 00:50:31;;;;;;;39.88;11.75;;;;;;;;;;4965978;28;20031;-80
2022/04/06 00:52:57;;;;;;;34.80;10.63;;;;;;;;;;4973984;28;20026;-80
2022/04/06 00:55:31;;;;;;;40.05;11.90;;;;;;;;;;4984664;28;20478;-80
2022/04/06 00:57:58;;;;;;;48.35;13.02;;;;;;;;;;4972362;28;20513;-80
2022/04/06 01:00:24;;;;;;;50.67;12.43;;;;;;;;;;4980827;28;20482;-80
2022/04/06 01:02:50;;;;;;;29.95;9.25;;;;;;;;;;4974812;28;20557;-80
2022/04/06 01:05:17;;;;;;;32.17;10.50;;;;;;;;;;4980453;28;20096;-80
2022/04/06 01:07:50;;;;;;;41.90;10.02;;;;;;;;;;4975983;28;20165;-80
2022/04/06 01:10:16;;;;;;;35.55;12.05;;;;;;;;;;4979833;28;20402;-80
2022/04/06 01:12:45;;;;;;;35.70;11.05;;;;;;;;;;4957194;28;20038;-80
2022/04/06 01:15:11;;;;;;;34.78;11.27;;;;;;;;;;4960669;28;20049;-79
2022/04/06 01:17:37;;;;;;;45.30;12.13;;;;;;;;;;4976903;28;20042;-80
2022/04/06 01:20:05;;;;;;;36.92;10.43;;;;;;;;;;4980919;28;20057;-80
2022/04/06 01:22:32;;;;;;;26.90;8.95;;;;;;;;;;4964147;28;20030;-80
2022/04/06 01:24:58;;;;;;;38.70;10.95;;;;;;;;;;4977641;28;20034;-80
2022/04/06 01:27:24;;;;;;;34.13;10.70;;;;;;;;;;4963123;28;20032;-80
2022/04/06 01:29:52;;;;;;;56.85;11.85;;;;;;;;;;4962896;28;20080;-80
2022/04/06 01:32:36;;;;;;;34.38;11.32;;;;;;;;;;4963283;28;20522;-81
2022/04/06 01:35:03;;;;;;;32.47;9.63;;;;;;;;;;4955777;28;20401;-80
2022/04/06 01:37:31;;;;;;;34.40;9.98;;;;;;;;;;4957409;28;20026;-81
2022/04/06 01:39:57;;;;;;;35.20;9.95;;;;;;;;;;4972033;28;20155;-80
2022/04/06 01:42:23;;;;;;;37.50;9.93;;;;;;;;;;4959725;28;20034;-80
2022/04/06 01:44:50;;;;;;;27.02;10.27;;;;;;;;;;4956497;28;20034;-81
2022/04/06 01:47:17;;;;;;;32.75;10.93;;;;;;;;;;4961184;28;20498;-80
2022/04/06 01:52:28;;;;;;;33.88;7.93;;;;;;;;;;4969533;28;20287;-81
2022/04/06 01:54:54;;;;;;;23.70;8.32;;;;;;;;;;4961415;28;20070;-80
2022/04/06 01:57:21;;;;;;;28.02;9.05;;;;;;;;;;4962606;28;20609;-81
2022/04/06 01:59:47;;;;;;;25.05;6.68;;;;;;;;;;4975303;28;20517;-81
2022/04/06 02:02:14;;;;;;;29.38;9.30;;;;;;;;;;4978385;28;20114;-80
2022/04/06 02:04:41;;;;;;;34.88;9.93;;;;;;;;;;4977683;28;20565;-81
2022/04/06 02:07:10;;;;;;;44.97;10.65;;;;;;;;;;4978717;28;20041;-81
2022/04/06 02:09:36;;;;;;;33.40;9.88;;;;;;;;;;4960871;28;20033;-81
2022/04/06 02:12:02;;;;;;;38.50;10.40;;;;;;;;;;4978356;28;20813;-80
2022/04/06 02:14:28;;;;;;;16.00;5.78;;;;;;;;;;4962571;28;20038;-81
2022/04/06 02:16:54;;;;;;;32.92;7.57;;;;;;;;;;4977308;28;20053;-80
2022/04/06 02:19:21;;;;;;;15.13;6.65;;;;;;;;;;4962434;28;20058;-80
2022/04/06 02:21:47;;;;;;;27.45;8.05;;;;;;;;;;4973112;28;20058;-81
2022/04/06 02:24:13;;;;;;;18.98;7.57;;;;;;;;;;4974898;28;20031;-80
2022/04/06 02:26:39;;;;;;;30.35;6.63;;;;;;;;;;4975690;28;20616;-80
2022/04/06 02:29:05;;;;;;;23.88;7.25;;;;;;;;;;4959296;28;20034;-81
2022/04/06 02:31:32;;;;;;;30.80;8.13;;;;;;;;;;4961323;28;20026;-81
2022/04/06 02:33:58;;;;;;;23.77;5.10;;;;;;;;;;4961162;28;20041;-81
2022/04/06 02:36:24;;;;;;;16.70;5.10;;;;;;;;;;4960811;28;20037;-80
2022/04/06 02:38:50;;;;;;;9.15;3.67;;;;;;;;;;4957140;28;20497;-80
2022/04/06 02:41:17;;;;;;;28.25;5.28;;;;;;;;;;4976615;28;20456;-81
2022/04/06 02:43:43;;;;;;;22.85;4.88;;;;;;;;;;4958847;28;20540;-81
2022/04/06 02:46:09;;;;;;;20.42;4.20;;;;;;;;;;4961100;28;20117;-81
2022/04/06 02:48:35;;;;;;;29.67;7.45;;;;;;;;;;4953647;28;20058;-81
2022/04/06 02:51:01;;;;;;;23.15;5.28;;;;;;;;;;4961310;28;20030;-80
2022/04/06 02:53:27;;;;;;;21.38;5.78;;;;;;;;;;4956617;28;20453;-81
2022/04/06 02:55:53;;;;;;;18.20;6.05;;;;;;;;;;4958727;28;20069;-80
2022/04/06 02:58:19;;;;;;;16.83;5.45;;;;;;;;;;4962811;28;20085;-81
2022/04/06 03:00:45;;;;;;;7.88;3.08;;;;;;;;;;4962592;28;20434;-80
2022/04/06 03:03:11;;;;;;;20.65;5.00;;;;;;;;;;4975582;28;20389;-81
2022/04/06 03:05:39;;;;;;;20.27;4.90;;;;;;;;;;4961954;28;20576;-80
2022/04/06 03:08:06;;;;;;;17.92;5.07;;;;;;;;;;4960412;28;20027;-80
2022/04/06 03:10:32;;;;;;;19.13;4.07;;;;;;;;;;4976728;28;20710;-80
2022/04/06 03:12:58;;;;;;;7.35;2.53;;;;;;;;;;4957816;28;20030;-80
2022/04/06 03:15:24;;;;;;;7.07;3.28;;;;;;;;;;4960192;28;20503;-80
2022/04/06 03:17:50;;;;;;;19.20;4.32;;;;;;;;;;4963631;28;20042;-81
2022/04/06 03:20:17;;;;;;;15.38;4.60;;;;;;;;;;4962520;28;20050;-80
2022/04/06 03:22:43;;;;;;;11.63;2.67;;;;;;;;;;4962995;28;20113;-80
2022/04/06 03:25:10;;;;;;;26.42;3.63;;;;;;;;;;4962222;28;20145;-80
2022/04/06 03:27:36;;;;;;;7.95;3.30;;;;;;;;;;4968665;28;20019;-80
2022/04/06 03:30:03;;;;;;;19.10;4.18;;;;;;;;;;4967916;28;20038;-80
2022/04/06 03:32:29;;;;;;;16.20;4.65;;;;;;;;;;4964404;28;20026;-80
2022/04/06 03:34:55;;;;;;;10.73;2.95;;;;;;;;;;4966469;28;20038;-80
2022/04/06 03:37:21;;;;;;;17.15;4.22;;;;;;;;;;4965105;28;20224;-80
2022/04/06 03:39:47;;;;;;;12.32;3.58;;;;;;;;;;4978889;28;20482;-80
2022/04/06 03:42:13;;;;;;;8.98;3.55;;;;;;;;;;4962925;28;20051;-80
2022/04/06 03:44:39;;;;;;;8.25;2.88;;;;;;;;;;4964385;28;20034;-79
2022/04/06 03:47:06;;;;;;;9.15;2.83;;;;;;;;;;4966838;28;20064;-80
2022/04/06 03:49:32;;;;;;;8.90;2.67;;;;;;;;;;4979882;28;20041;-80
2022/04/06 03:51:58;;;;;;;6.70;2.15;;;;;;;;;;4979659;28;20026;-79
2022/04/06 03:54:24;;;;;;;15.48;4.20;;;;;;;;;;4978455;28;20084;-79
2022/04/06 03:56:50;;;;;;;6.80;1.92;;;;;;;;;;4980356;28;20031;-80
2022/04/06 03:59:16;;;;;;;9.48;3.20;;;;;;;;;;4977067;28;20046;-79
2022/04/06 04:01:49;;;;;;;12.32;4.32;;;;;;;;;;4967684;28;20498;-78
2022/04/06 04:04:15;;;;;;;4.13;2.30;;;;;;;;;;4964900;28;20037;-78
2022/04/06 04:06:41;;;;;;;13.40;3.97;;;;;;;;;;4965524;28;20813;-78
2022/04/06 04:09:07;;;;;;;30.23;4.70;;;;;;;;;;4967390;28;20124;-78
2022/04/06 04:11:33;;;;;;;11.18;4.18;;;;;;;;;;4966957;28;20065;-79
2022/04/06 04:13:59;;;;;;;15.57;4.47;;;;;;;;;;4965974;28;20027;-78
2022/04/06 04:16:26;;;;;;;14.73;4.65;;;;;;;;;;4978421;28;20540;-78
2022/04/06 04:18:52;;;;;;;18.77;4.85;;;;;;;;;;4978857;28;20161;-78
2022/04/06 04:21:33;;;;;;;19.00;4.75;;;;;;;;;;4983999;28;20523;-78
2022/04/06 04:24:03;;;;;;;20.50;6.38;;;;;;;;;;4970203;28;20057;-78
2022/04/06 04:26:29;;;;;;;11.95;3.88;;;;;;;;;;4963240;28;20019;-78
2022/04/06 04:28:56;;;;;;;15.15;5.40;;;;;;;;;;4966568;28;20026;-78
2022/04/06 04:31:22;;;;;;;37.83;5.28;;;;;;;;;;4981249;28;20076;-79
2022/04/06 04:33:48;;;;;;;22.45;7.20;;;;;;;;;;4965856;28;20033;-78
2022/04/06 04:36:15;;;;;;;21.10;7.00;;;;;;;;;;4975064;28;20118;-78
2022/04/06 04:38:42;;;;;;;30.05;7.43;;;;;;;;;;4977587;28;20659;-78
2022/04/06 04:41:08;;;;;;;18.30;7.72;;;;;;;;;;4958219;28;20027;-79
2022/04/06 04:43:35;;;;;;;13.52;5.85;;;;;;;;;;4978596;28;20626;-79
2022/04/06 04:46:01;;;;;;;31.58;8.45;;;;;;;;;;4977563;28;20053;-79
2022/04/06 04:48:27;;;;;;;18.00;4.25;;;;;;;;;;4980225;28;20490;-79
2022/04/06 04:50:53;;;;;;;11.80;4.50;;;;;;;;;;4964353;28;20026;-78
2022/04/06 04:53:19;;;;;;;17.75;5.25;;;;;;;;;;4976393;28;20037;-78
2022/04/06 04:55:45;;;;;;;12.15;4.70;;;;;;;;;;4959569;28;20031;-78
2022/04/06 04:58:11;;;;;;;32.45;6.88;;;;;;;;;;4958158;28;20161;-78
2022/04/06 05:00:37;;;;;;;17.65;5.57;;;;;;;;;;4955251;28;20188;-78
2022/04/06 05:03:03;;;;;;;20.95;5.85;;;;;;;;;;4960948;28;20128;-78
2022/04/06 05:05:29;;;;;;;17.40;5.78;;;;;;;;;;4980087;28;20031;-78
2022/04/06 05:07:58;;;;;;;9.40;4.07;;;;;;;;;;4962668;28;20148;-78
2022/04/06 05:10:24;;;;;;;27.92;5.45;;;;;;;;;;4963670;28;20029;-78
2022/04/06 05:12:51;;;;;;;24.17;5.78;;;;;;;;;;4978203;28;20038;-79
2022/04/06 05:15:17;;;;;;;14.85;3.35;;;;;;;;;;4967311;28;20034;-78
2022/04/06 05:17:43;;;;;;;7.97;3.17;;;;;;;;;;4963993;28;20501;-78
2022/04/06 05:20:10;;;;;;;19.65;4.97;;;;;;;;;;4975152;28;20046;-78
2022/04/06 05:22:36;;;;;;;28.98;7.15;;;;;;;;;;4972713;28;20027;-80
2022/04/06 05:25:04;;;;;;;29.20;6.95;;;;;;;;;;4964274;28;20486;-78
2022/04/06 05:27:31;;;;;;;28.02;4.40;;;;;;;;;;4961837;28;20034;-78
2022/04/06 05:29:58;;;;;;;10.40;2.92;;;;;;;;;;4956781;28;20504;-78
2022/04/06 05:32:30;;;;;;;20.27;4.47;;;;;;;;;;4961707;28;20467;-79
2022/04/06 05:34:57;;;;;;;15.65;5.50;;;;;;;;;;4975897;28;20370;-79
2022/04/06 05:37:23;;;;;;;29.48;6.60;;;;;;;;;;4961995;28;20521;-79
2022/04/06 05:39:49;;;;;;;35.60;6.97;;;;;;;;;;4976031;28;21407;-79
2022/04/06 05:42:15;;;;;;;11.35;4.63;;;;;;;;;;4976075;28;20039;-79
2022/04/06 05:44:41;;;;;;;11.05;3.28;;;;;;;;;;4983264;28;20525;-78
2022/04/06 05:47:07;;;;;;;3.40;2.28;;;;;;;;;;4972928;28;20030;-80
2022/04/06 05:49:33;;;;;;;20.10;4.82;;;;;;;;;;4974027;28;20566;-79
2022/04/06 05:51:59;;;;;;;9.50;4.18;;;;;;;;;;4976039;28;20040;-79
2022/04/06 05:54:25;;;;;;;28.58;6.72;;;;;;;;;;4979494;28;20401;-79
2022/04/06 05:56:51;;;;;;;19.98;6.25;;;;;;;;;;4962616;28;20038;-79
2022/04/06 05:59:17;;;;;;;14.95;3.25;;;;;;;;;;4958578;28;20406;-79
2022/04/06 06:01:43;;;;;;;17.10;4.55;;;;;;;;;;4962389;28;20038;-79
2022/04/06 06:04:09;;;;;;;20.25;4.35;;;;;;;;;;4973787;28;20039;-79
2022/04/06 06:06:35;;;;;;;14.77;5.28;;;;;;;;;;4962852;28;20030;-79
2022/04/06 06:09:01;;;;;;;14.40;4.60;;;;;;;;;;4957183;28;20153;-79
2022/04/06 06:11:27;;;;;;;14.55;4.93;;;;;;;;;;4963459;28;20043;-79
2022/04/06 06:13:54;;;;;;;14.57;4.80;;;;;;;;;;4960812;28;20037;-79
2022/04/06 06:16:20;;;;;;;23.20;5.95;;;;;;;;;;4978414;28;20397;-79
2022/04/06 06:18:46;;;;;;;15.10;5.25;;;;;;;;;;4955976;28;20030;-79
2022/04/06 06:21:12;;;;;;;9.38;3.78;;;;;;;;;;4975993;28;20050;-79
2022/04/06 06:23:38;;;;;;;33.53;6.47;;;;;;;;;;4972543;28;20038;-78
2022/04/06 06:26:04;;;;;;;17.80;4.05;;;;;;;;;;4967809;28;20045;-79
2022/04/06 06:28:30;;;;;;;7.43;4.25;;;;;;;;;;4970315;28;20029;-78
2022/04/06 06:30:56;;;;;;;12.63;4.45;;;;;;;;;;4967630;28;20121;-79
2022/04/06 06:33:22;;;;;;;21.33;4.13;;;;;;;;;;4955235;28;20430;-78
2022/04/06 06:35:48;;;;;;;7.13;2.83;;;;;;;;;;4961150;28;20031;-78
2022/04/06 06:38:14;;;;;;;12.90;4.55;;;;;;;;;;4969529;28;20034;-79
2022/04/06 06:40:41;;;;;;;14.85;3.80;;;;;;;;;;4956746;28;21802;-79
2022/04/06 06:43:07;;;;;;;5.10;2.38;;;;;;;;;;4964219;28;20439;-78
2022/04/06 06:45:33;;;;;;;11.88;2.10;;;;;;;;;;4970448;28;20038;-79
2022/04/06 06:47:59;;;;;;;11.20;3.67;;;;;;;;;;4968303;28;20030;-79
2022/04/06 06:50:25;;;;;;;13.25;3.40;;;;;;;;;;4958109;28;20078;-79
2022/04/06 06:52:51;;;;;;;19.30;3.72;;;;;;;;;;4964353;28;20043;-80
2022/04/06 06:55:19;;;;;;;9.30;3.47;;;;;;;;;;4964312;28;20572;-79
2022/04/06 06:57:45;;;;;;;10.02;4.05;;;;;;;;;;4955952;28;20065;-79
2022/04/06 07:00:11;;;;;;;5.43;2.65;;;;;;;;;;4969334;28;20134;-79
2022/04/06 07:02:38;;;;;;;14.95;2.58;;;;;;;;;;4972636;28;20035;-78
2022/04/06 07:05:05;;;;;;;16.52;3.92;;;;;;;;;;4969249;28;20039;-78
2022/04/06 07:07:31;;;;;;;21.23;3.65;;;;;;;;;;4970748;28;20061;-79
2022/04/06 07:09:59;;;;;;;12.13;2.13;;;;;;;;;;4967148;28;20931;-79
2022/04/06 07:12:25;;;;;;;17.48;3.03;;;;;;;;;;4973846;28;20565;-79
2022/04/06 07:14:51;;;;;;;12.13;3.35;;;;;;;;;;4972851;28;20062;-79
2022/04/06 07:17:19;;;;;;;5.70;1.75;;;;;;;;;;4980027;28;20596;-78
2022/04/06 07:19:45;;;;;;;10.60;2.42;;;;;;;;;;4976281;28;20042;-79
2022/04/06 07:22:11;;;;;;;15.30;3.70;;;;;;;;;;4979037;28;20126;-79
2022/04/06 07:24:37;;;;;;;9.98;3.35;;;;;;;;;;4981531;28;20073;-79
2022/04/06 07:27:03;;;;;;;10.35;2.05;;;;;;;;;;4980578;28;20077;-78
2022/04/06 07:29:29;;;;;;;10.25;2.92;;;;;;;;;;4973906;28;20023;-79
2022/04/06 07:31:55;;;;;;;3.08;2.00;;;;;;;;;;4967391;28;20117;-79
2022/04/06 07:34:21;;;;;;;2.10;1.35;;;;;;;;;;4963304;28;20026;-79
2022/04/06 07:36:47;;;;;;;13.65;2.58;;;;;;;;;;4964459;28;20042;-79
2022/04/06 07:39:13;;;;;;;6.35;2.40;;;;;;;;;;4978544;28;20034;-79
2022/04/06 07:41:39;;;;;;;14.05;3.70;;;;;;;;;;4966931;28;20049;-80
2022/04/06 07:44:06;;;;;;;8.77;2.22;;;;;;;;;;4964275;28;20046;-80
2022/04/06 07:46:35;;;;;;;10.48;2.03;;;;;;;;;;4963071;28;20034;-79
2022/04/06 07:49:01;;;;;;;11.32;3.90;;;;;;;;;;4966334;28;20100;-79
2022/04/06 07:51:27;;;;;;;9.35;2.38;;;;;;;;;;4965915;28;20562;-80
2022/04/06 07:53:53;;;;;;;7.22;2.50;;;;;;;;;;4964404;28;20018;-80
2022/04/06 07:56:19;;;;;;;5.22;1.88;;;;;;;;;;4965001;28;20036;-79
2022/04/06 07:58:45;;;;;;;7.43;1.92;;;;;;;;;;4980234;28;20172;-80
2022/04/06 08:01:11;;;;;;;9.73;3.05;;;;;;;;;;4965367;28;20758;-79
2022/04/06 08:03:37;;;;;;;8.73;2.17;;;;;;;;;;4964309;28;20125;-80
2022/04/06 08:06:03;;;;;;;13.73;3.20;;;;;;;;;;4963698;28;20495;-80
2022/04/06 08:08:29;;;;;;;10.77;3.13;;;;;;;;;;4976953;28;20110;-79
2022/04/06 08:10:56;;;;;;;19.35;2.83;;;;;;;;;;4975712;28;20178;-79
2022/04/06 08:13:22;;;;;;;10.40;3.20;;;;;;;;;;4959149;28;20035;-79
2022/04/06 08:15:48;;;;;;;11.00;2.35;;;;;;;;;;4978460;28;20045;-79
2022/04/06 08:18:14;;;;;;;8.30;2.88;;;;;;;;;;4964681;28;20042;-79
2022/04/06 08:20:40;;;;;;;12.52;3.20;;;;;;;;;;4968478;28;20053;-78
2022/04/06 08:23:06;;;;;;;22.90;4.35;;;;;;;;;;4974482;28;20034;-78
2022/04/06 08:25:33;;;;;;;8.93;3.42;;;;;;;;;;4963536;28;20050;-79
2022/04/06 08:27:59;;;;;;;6.10;2.25;;;;;;;;;;4957541;28;20061;-79
2022/04/06 08:30:25;;;;;;;11.68;2.75;;;;;;;;;;4963698;28;20031;-79
2022/04/06 08:32:51;;;;;;;6.47;2.50;;;;;;;;;;4968348;28;20404;-80
2022/04/06 08:35:17;;;;;;;8.40;2.78;;;;;;;;;;4964508;28;20130;-79
2022/04/06 08:37:43;;;;;;;5.90;2.55;;;;;;;;;;4960467;28;20039;-80
2022/04/06 08:40:10;;;;;;;6.85;1.95;;;;;;;;;;4965671;28;20118;-79
2022/04/06 08:42:37;;;;;;;15.55;3.70;;;;;;;;;;4964420;28;20026;-79
2022/04/06 08:45:10;;;;;;;10.85;2.45;;;;;;;;;;4960172;28;20482;-80
2022/04/06 08:47:36;;;;;;;9.93;3.08;;;;;;;;;;4959609;28;20086;-80
2022/04/06 08:50:03;;;;;;;8.02;3.60;;;;;;;;;;4944694;28;20095;-80
2022/04/06 08:52:31;;;;;;;4.00;2.10;;;;;;;;;;4942686;28;20066;-81
2022/04/06 08:54:57;;;;;;;16.77;4.55;;;;;;;;;;4964094;28;20042;-80
2022/04/06 08:57:24;;;;;;;12.18;2.30;;;;;;;;;;4946692;28;20037;-80
2022/04/06 08:59:50;;;;;;;12.38;2.70;;;;;;;;;;4958140;28;20042;-80
2022/04/06 09:02:20;;;;;;;19.60;4.50;;;;;;;;;;4944437;28;20193;-80
2022/04/06 09:04:53;;;;;;;5.85;2.38;;;;;;;;;;4945875;28;20045;-80
2022/04/06 09:07:23;;;;;;;15.25;3.15;;;;;;;;;;4944316;28;20027;-80
2022/04/06 09:09:50;;;;;;;9.70;2.80;;;;;;;;;;4941825;28;20042;-80
2022/04/06 09:12:18;;;;;;;9.60;2.58;;;;;;;;;;4953729;28;20167;-80
2022/04/06 09:14:44;;;;;;;11.73;2.90;;;;;;;;;;4956617;28;20043;-79
2022/04/06 09:17:10;;;;;;;10.43;2.33;;;;;;;;;;4958276;28;20030;-79
2022/04/06 09:19:37;;;;;;;9.68;2.22;;;;;;;;;;4959967;28;20514;-80
2022/04/06 09:22:05;;;;;;;7.80;2.47;;;;;;;;;;4978944;28;20061;-80
2022/04/06 09:24:31;;;;;;;14.23;3.28;;;;;;;;;;4968419;28;20633;-80
2022/04/06 09:27:01;;;;;;;8.25;1.70;;;;;;;;;;4967121;28;20065;-79
2022/04/06 09:29:27;;;;;;;7.75;1.80;;;;;;;;;;4966035;28;20380;-80
2022/04/06 09:31:54;;;;;;;17.60;2.75;;;;;;;;;;4981123;28;20035;-80
2022/04/06 09:34:24;;;;;;;9.57;2.55;;;;;;;;;;4983461;28;20030;-80
2022/04/06 09:36:56;;;;;;;8.23;2.40;;;;;;;;;;4978849;28;20124;-80
2022/04/06 09:39:41;;;;;;;8.27;2.88;;;;;;;;;;4966481;28;20041;-80
2022/04/06 09:42:08;;;;;;;3.55;1.65;;;;;;;;;;4977680;28;20494;-80
2022/04/06 09:47:39;;;;;;;8.77;3.15;;;;;;;;;;4975809;28;20098;-81
2022/04/06 09:50:14;;;;;;;9.70;2.50;;;;;;;;;;4974637;28;20476;-80
2022/04/06 09:52:41;;;;;;;5.93;2.22;;;;;;;;;;4975961;28;20030;-80
2022/04/06 09:55:08;;;;;;;7.50;3.00;;;;;;;;;;4977039;28;20370;-80
2022/04/06 09:57:39;;;;;;;12.55;2.83;;;;;;;;;;4978961;28;20034;-80
2022/04/06 10:00:05;;;;;;;7.88;3.13;;;;;;;;;;4971793;28;20470;-81
2022/04/06 10:02:34;;;;;;;9.82;2.60;;;;;;;;;;4963413;28;20039;-81
2022/04/06 10:05:02;;;;;;;7.13;3.08;;;;;;;;;;4977086;28;20060;-80
2022/04/06 10:07:28;;;;;;;13.40;3.03;;;;;;;;;;4982680;28;20026;-81
2022/04/06 10:09:55;;;;;;;7.60;2.88;;;;;;;;;;4966957;28;20035;-81
2022/04/06 10:12:22;;;;;;;19.67;3.50;;;;;;;;;;4979847;28;20434;-80
2022/04/06 10:14:48;;;;;;;7.25;2.70;;;;;;;;;;4981973;28;20113;-81
2022/04/06 10:17:16;;;;;;;15.95;2.90;;;;;;;;;;4964658;28;20046;-81
2022/04/06 10:19:46;;;;;;;14.77;3.33;;;;;;;;;;4979812;28;20951;-81
2022/04/06 10:22:27;;;;;;;12.25;3.70;;;;;;;;;;4975139;28;20062;-81
2022/04/06 10:25:04;;;;;;;10.18;3.38;;;;;;;;;;4972894;28;20489;-80
2022/04/06 10:27:35;;;;;;;18.35;3.13;;;;;;;;;;4979187;28;20436;-81
2022/04/06 10:30:15;;;;;;;13.90;3.10;;;;;;;;;;4972640;28;20036;-81
2022/04/06 10:32:42;;;;;;;17.70;4.15;;;;;;;;;;4970183;28;20050;-81
2022/04/06 10:35:22;;;;;;;24.27;4.32;;;;;;;;;;4966298;28;20594;-81
2022/04/06 10:37:48;;;;;;;10.02;2.80;;;;;;;;;;4976684;28;20042;-81
2022/04/06 10:40:14;;;;;;;9.15;3.17;;;;;;;;;;4978574;28;20498;-81
2022/04/06 10:42:42;;;;;;;10.27;4.63;;;;;;;;;;4963553;28;20073;-81
2022/04/06 10:45:29;;;;;;;16.48;4.00;;;;;;;;;;4963691;28;20026;-81
2022/04/06 10:48:14;;;;;;;13.93;3.60;;;;;;;;;;4978211;28;20030;-81
2022/04/06 10:50:43;;;;;;;31.13;3.75;;;;;;;;;;4981113;28;20041;-80
2022/04/06 10:53:19;;;;;;;13.75;4.85;;;;;;;;;;4962140;28;20023;-80
2022/04/06 10:56:16;;;;;;;15.30;4.13;;;;;;;;;;4981616;28;20037;-79
2022/04/06 10:58:58;;;;;;;17.33;3.90;;;;;;;;;;4960200;28;20042;-79
2022/04/06 11:01:31;;;;;;;17.38;3.83;;;;;;;;;;4962154;28;20398;-79
2022/04/06 11:04:01;;;;;;;16.80;4.45;;;;;;;;;;4970048;28;20994;-78
2022/04/06 11:07:03;;;;;;;9.50;2.60;;;;;;;;;;4963865;28;20035;-78
2022/04/06 11:12:17;;;;;;;23.65;4.82;;;;;;;;;;4976044;28;20045;-78
2022/04/06 11:14:44;;;;;;;6.07;2.67;;;;;;;;;;4974426;28;20026;-78
2022/04/06 11:17:34;;;;;;;20.02;4.78;;;;;;;;;;4976681;28;20571;-76
2022/04/06 11:20:12;;;;;;;17.48;4.95;;;;;;;;;;4944776;28;20038;-78
2022/04/06 11:22:45;;;;;;;24.95;4.50;;;;;;;;;;4939015;28;20043;-78
2022/04/06 11:25:13;;;;;;;19.77;4.07;;;;;;;;;;4962014;28;20454;-78
2022/04/06 11:27:39;;;;;;;22.02;4.53;;;;;;;;;;4943879;28;20423;-78
2022/04/06 11:30:09;;;;;;;36.35;6.60;;;;;;;;;;4943453;28;20027;-77
2022/04/06 11:32:36;;;;;;;14.55;4.25;;;;;;;;;;4944585;28;20476;-78
2022/04/06 11:35:02;;;;;;;20.88;3.97;;;;;;;;;;4959895;28;20833;-77
2022/04/06 11:37:28;;;;;;;14.35;3.47;;;;;;;;;;4942999;28;20030;-78
2022/04/06 11:39:58;;;;;;;15.05;2.90;;;;;;;;;;4941095;28;20157;-79
2022/04/06 11:42:24;;;;;;;19.92;4.35;;;;;;;;;;4945677;28;20038;-78
2022/04/06 11:44:50;;;;;;;14.85;3.90;;;;;;;;;;4954243;28;20066;-79
2022/04/06 11:47:26;;;;;;;13.07;3.25;;;;;;;;;;4942102;28;20039;-81
2022/04/06 11:49:52;;;;;;;16.88;4.93;;;;;;;;;;4945529;28;20057;-80
2022/04/06 11:52:18;;;;;;;30.13;5.20;;;;;;;;;;4960504;28;20505;-78
2022/04/06 11:54:52;;;;;;;15.75;3.55;;;;;;;;;;4946891;28;20039;-78
2022/04/06 11:57:18;;;;;;;18.30;4.25;;;;;;;;;;4941505;28;21378;-78
2022/04/06 11:59:56;;;;;;;15.95;3.42;;;;;;;;;;4944464;28;20494;-79
2022/04/06 12:02:23;;;;;;;15.52;3.92;;;;;;;;;;4955181;28;20074;-79
2022/04/06 12:05:05;;;;;;;15.70;2.97;;;;;;;;;;4960736;28;20061;-79
2022/04/06 12:07:31;;;;;;;15.02;3.42;;;;;;;;;;4949322;28;20494;-79
2022/04/06 12:09:57;;;;;;;11.45;3.25;;;;;;;;;;4942488;28;20030;-79
2022/04/06 12:12:24;;;;;;;12.73;3.03;;;;;;;;;;4937115;28;20041;-79
2022/04/06 12:14:53;;;;;;;14.02;4.47;;;;;;;;;;4944648;28;20529;-79
2022/04/06 12:17:20;;;;;;;19.60;2.88;;;;;;;;;;4948186;28;20557;-80
2022/04/06 12:19:47;;;;;;;11.25;3.00;;;;;;;;;;4945681;28;20426;-79
2022/04/06 12:22:19;;;;;;;16.70;2.85;;;;;;;;;;4967009;28;20105;-80
2022/04/06 12:24:45;;;;;;;3.28;1.10;;;;;;;;;;4965984;28;20038;-80
2022/04/06 12:27:26;;;;;;;22.02;3.83;;;;;;;;;;4958151;28;20553;-80
2022/04/06 12:30:06;;;;;;;14.38;2.63;;;;;;;;;;4984254;28;20105;-80
2022/04/06 12:32:42;;;;;;;11.18;2.65;;;;;;;;;;4980964;28;20483;-80
2022/04/06 12:35:21;;;;;;;13.90;3.50;;;;;;;;;;4982906;28;20513;-80
2022/04/06 12:37:47;;;;;;;6.65;2.00;;;;;;;;;;4974636;28;20049;-80
2022/04/06 12:40:40;;;;;;;16.38;2.97;;;;;;;;;;4968814;28;20277;-80
2022/04/06 12:43:22;;;;;;;7.45;2.03;;;;;;;;;;4972771;28;20042;-80
2022/04/06 12:45:49;;;;;;;12.35;2.50;;;;;;;;;;4980294;28;20093;-81
2022/04/06 12:48:15;;;;;;;14.20;2.65;;;;;;;;;;4981279;28;20412;-81
2022/04/06 12:50:41;;;;;;;5.22;1.52;;;;;;;;;;4982790;28;20387;-80
2022/04/06 12:53:10;;;;;;;17.95;3.60;;;;;;;;;;4968579;28;20494;-81
2022/04/06 12:55:36;;;;;;;24.52;3.22;;;;;;;;;;4963509;28;20031;-80
2022/04/06 12:58:15;;;;;;;17.67;3.50;;;;;;;;;;4980578;28;20057;-80
2022/04/06 13:00:41;;;;;;;15.75;3.00;;;;;;;;;;4971376;28;20047;-78
2022/04/06 13:03:08;;;;;;;10.65;3.15;;;;;;;;;;4967983;28;20088;-81
2022/04/06 13:05:34;;;;;;;15.77;2.92;;;;;;;;;;4979726;28;20031;-80
2022/04/06 13:08:02;;;;;;;7.35;2.45;;;;;;;;;;4972310;28;20026;-80
2022/04/06 13:10:34;;;;;;;8.13;2.10;;;;;;;;;;4971199;28;20022;-80
2022/04/06 13:13:01;;;;;;;13.05;2.65;;;;;;;;;;4973683;28;20088;-80
2022/04/06 13:15:27;;;;;;;22.25;4.07;;;;;;;;;;4966994;28;20034;-80
2022/04/06 13:17:53;;;;;;;8.52;1.95;;;;;;;;;;4969983;28;20065;-81
2022/04/06 13:20:20;;;;;;;10.15;2.08;;;;;;;;;;4986668;28;20042;-83
2022/04/06 13:22:47;;;;;;;16.08;1.90;;;;;;;;;;4966758;28;20340;-83
2022/04/06 13:25:14;;;;;;;17.88;2.50;;;;;;;;;;4982736;28;20072;-83
2022/04/06 13:27:43;;;;;;;6.57;2.47;;;;;;;;;;4965232;28;20029;-83
2022/04/06 13:30:10;;;;;;;5.97;1.90;;;;;;;;;;4991358;28;20037;-83
2022/04/06 13:32:37;;;;;;;15.27;1.55;;;;;;;;;;4984054;28;20514;-83
2022/04/06 13:35:03;;;;;;;9.50;2.17;;;;;;;;;;4983376;28;20097;-83
2022/04/06 13:37:29;;;;;;;9.23;2.47;;;;;;;;;;4980908;28;20034;-83
2022/04/06 13:39:55;;;;;;;16.23;3.03;;;;;;;;;;4971590;28;20034;-83
2022/04/06 13:42:22;;;;;;;8.75;2.97;;;;;;;;;;4968859;28;20045;-83
2022/04/06 13:44:48;;;;;;;3.85;1.85;;;;;;;;;;4969984;28;20037;-83
2022/04/06 13:47:14;;;;;;;8.13;2.28;;;;;;;;;;4968419;28;20433;-83
2022/04/06 13:49:40;;;;;;;16.52;1.88;;;;;;;;;;4968571;28;20030;-83
2022/04/06 13:52:06;;;;;;;8.38;1.48;;;;;;;;;;4969305;28;20030;-83
2022/04/06 13:54:33;;;;;;;3.25;1.40;;;;;;;;;;4969871;28;20601;-83
2022/04/06 13:56:59;;;;;;;11.25;2.83;;;;;;;;;;4972658;28;20037;-83
2022/04/06 13:59:25;;;;;;;8.10;2.10;;;;;;;;;;4983349;28;20585;-83
2022/04/06 14:01:51;;;;;;;8.18;2.15;;;;;;;;;;4986598;28;20268;-84
2022/04/06 14:04:17;;;;;;;10.35;2.40;;;;;;;;;;4985526;28;20569;-84
2022/04/06 14:06:44;;;;;;;12.82;3.30;;;;;;;;;;4967099;28;20482;-84
2022/04/06 14:09:10;;;;;;;6.75;1.48;;;;;;;;;;4982928;28;20513;-84
2022/04/06 14:11:37;;;;;;;4.03;1.67;;;;;;;;;;4988644;28;20464;-83
2022/04/06 14:14:03;;;;;;;5.10;1.67;;;;;;;;;;4970195;28;20065;-84
2022/04/06 14:16:30;;;;;;;4.82;1.60;;;;;;;;;;4968690;28;20058;-84
2022/04/06 14:18:58;;;;;;;4.40;1.17;;;;;;;;;;4968692;28;20026;-83
2022/04/06 14:21:25;;;;;;;11.20;1.67;;;;;;;;;;4971691;28;20030;-84
2022/04/06 14:23:51;;;;;;;4.18;1.88;;;;;;;;;;4966768;28;20065;-84
2022/04/06 14:26:18;;;;;;;9.88;1.48;;;;;;;;;;4970581;28;20045;-84
2022/04/06 14:28:45;;;;;;;10.57;0.98;;;;;;;;;;4983703;28;20534;-84
2022/04/06 14:31:10;;;;;;;5.13;1.92;;;;;;;;;;4970244;28;20038;-84
2022/04/06 14:33:37;;;;;;;5.72;1.75;;;;;;;;;;4964987;28;20022;-84
2022/04/06 14:36:04;;;;;;;4.35;1.33;;;;;;;;;;4986644;28;20062;-83
2022/04/06 14:38:30;;;;;;;2.05;1.17;;;;;;;;;;4964474;28;20634;-83
2022/04/06 14:40:57;;;;;;;11.88;1.90;;;;;;;;;;4981899;28;20030;-83
2022/04/06 14:43:24;;;;;;;4.35;1.15;;;;;;;;;;4967352;28;20062;-83
2022/04/06 14:45:51;;;;;;;3.30;1.27;;;;;;;;;;4982523;28;20498;-83
2022/04/06 14:48:17;;;;;;;4.10;1.60;;;;;;;;;;4964421;28;20025;-83